Independent — WDJ441 — position and weather

sailwx.info

Track history (hours):
 
Tides and Currents Weather Stations Pressure Air Temp Water Temp Dewpoint Dewpoint Depression Visibility Wind Speed Wind Dir Waves Ship Positions

Independent

Last reported at 2017-Sep-21 12:01 UTC. Time now 2017-Sep-21 12:31 UTC.
Position N 27°56' W 082°26'.

Length 28 m; draft 5 m.

Type: Tug. MMSI: 367777460.

Date/timePositionNaut miles runAvg speedWind from/ knotsBaromVisibWave heightAir tempDewpointWater temp
2017-Sep-21 12:01N 27°56' W 082°26'0 0.0
2017-Sep-21 11:31N 27°56' W 082°26'0 0.0
2017-Sep-21 11:01N 27°56' W 082°26'0 0.0
2017-Sep-21 10:31N 27°56' W 082°26'0 0.0
2017-Sep-21 10:01N 27°56' W 082°26'0 0.0
2017-Sep-21 09:31N 27°56' W 082°26'0 0.0
2017-Sep-21 09:01N 27°56' W 082°26'0 0.0
2017-Sep-21 08:31N 27°56' W 082°26'0 0.0
2017-Sep-21 08:01N 27°56' W 082°26'0 0.0
2017-Sep-21 07:31N 27°56' W 082°26'0 0.0
2017-Sep-21 07:00N 27°56' W 082°26'0 0.0
2017-Sep-21 06:30N 27°56' W 082°26'0 0.0
2017-Sep-21 06:01N 27°56' W 082°26'0 0.0
2017-Sep-21 05:31N 27°56' W 082°26'0 0.0
2017-Sep-21 05:01N 27°56' W 082°26'0 0.0
2017-Sep-21 04:31N 27°56' W 082°26'0 0.0
2017-Sep-21 04:00N 27°56' W 082°26'0 0.0
2017-Sep-21 03:31N 27°56' W 082°26'0 0.0
2017-Sep-21 03:01N 27°56' W 082°26'0 0.0
2017-Sep-21 02:31N 27°56' W 082°26'0 0.0
2017-Sep-21 02:01N 27°56' W 082°26'0 0.0
2017-Sep-21 01:31N 27°56' W 082°26'0 0.0
2017-Sep-21 01:01N 27°56' W 082°26'0 0.0
2017-Sep-21 00:31N 27°56' W 082°26'0 0.0
2017-Sep-21 00:01N 27°56' W 082°26'0 0.0
2017-Sep-20 23:30N 27°56' W 082°26'0 0.0
2017-Sep-20 23:00N 27°56' W 082°26'4 7.3
2017-Sep-20 22:31N 27°52' W 082°27'5 9.2
2017-Sep-20 22:00N 27°48' W 082°28'5 9.7
2017-Sep-20 21:30N 27°47' W 082°34'4 9.0
2017-Sep-20 21:01N 27°52' W 082°33'0 0.0
2017-Sep-20 20:31N 27°52' W 082°33'0 0.0
2017-Sep-20 20:01N 27°52' W 082°33'2 3.8
2017-Sep-20 19:30N 27°50' W 082°34'4 8.4
2017-Sep-20 19:00N 27°47' W 082°30'510.4
2017-Sep-20 18:30N 27°51' W 082°27'5 9.2
2017-Sep-20 18:00N 27°56' W 082°26'0 0.1
2017-Sep-20 17:31N 27°56' W 082°26'0 0.0
2017-Sep-20 17:01N 27°56' W 082°26'0 0.0
2017-Sep-20 16:31N 27°56' W 082°26'0 0.0
2017-Sep-20 16:01N 27°56' W 082°26'0 0.0
2017-Sep-20 15:31N 27°56' W 082°26'0 0.0
2017-Sep-20 15:01N 27°56' W 082°26'0 0.0
2017-Sep-20 14:01N 27°56' W 082°26'0 0.0
2017-Sep-20 13:31N 27°56' W 082°26'0 0.0
2017-Sep-20 13:00N 27°56' W 082°26'0 0.0
2017-Sep-20 12:30N 27°56' W 082°26'0 0.0
2017-Sep-20 12:01N 27°56' W 082°26'0 0.0
2017-Sep-20 11:30N 27°56' W 082°26'0 0.0
2017-Sep-20 11:01N 27°56' W 082°26'0 0.0
2017-Sep-20 10:31N 27°56' W 082°26'0 0.0
2017-Sep-20 10:01N 27°56' W 082°26'0 0.0
2017-Sep-20 09:30N 27°56' W 082°26'0 0.0
2017-Sep-20 09:01N 27°56' W 082°26'0 0.0
2017-Sep-20 08:31N 27°56' W 082°26'0 0.0
2017-Sep-20 08:01N 27°56' W 082°26'0 0.0
2017-Sep-20 07:31N 27°56' W 082°26'0 0.0
2017-Sep-20 07:01N 27°56' W 082°26'0 0.0
2017-Sep-20 06:31N 27°56' W 082°26'0 0.0
2017-Sep-20 06:00N 27°56' W 082°26'1 2.9
2017-Sep-20 05:30N 27°55' W 082°26'0 0.0
2017-Sep-20 05:01N 27°55' W 082°26'0 0.4
2017-Sep-20 04:30N 27°55' W 082°26'1 1.7
2017-Sep-20 04:01N 27°54' W 082°26'5 9.5
2017-Sep-20 03:30N 27°49' W 082°27'2 4.1
2017-Sep-20 02:59N 27°48' W 082°25'0 0.0
2017-Sep-20 02:29N 27°48' W 082°25'3 6.2
2017-Sep-20 02:01N 27°51' W 082°27'3 7.0
2017-Sep-20 01:30N 27°54' W 082°26'0 0.7
2017-Sep-20 01:01N 27°55' W 082°26'0 0.0
2017-Sep-20 00:31N 27°55' W 082°26'1 1.4
2017-Sep-20 00:00N 27°55' W 082°26'1 2.6
2017-Sep-19 23:31N 27°56' W 082°26'0 0.0
2017-Sep-19 23:01N 27°56' W 082°26'0 0.0
2017-Sep-19 22:30N 27°56' W 082°26'0 0.0
2017-Sep-19 22:01N 27°56' W 082°26'0 0.0
2017-Sep-19 21:31N 27°56' W 082°26'0 0.0
2017-Sep-19 21:01N 27°56' W 082°26'0 0.0
2017-Sep-19 20:31N 27°56' W 082°26'0 0.0
2017-Sep-19 20:00N 27°56' W 082°26'0 0.0
2017-Sep-19 19:30N 27°56' W 082°26'0 0.0
2017-Sep-19 19:01N 27°56' W 082°26'0 0.0
2017-Sep-19 18:31N 27°56' W 082°26'0 0.0
2017-Sep-19 18:01N 27°56' W 082°26'0 0.0
2017-Sep-19 17:31N 27°56' W 082°26'0 0.0
2017-Sep-19 17:00N 27°56' W 082°26'0 0.0
2017-Sep-19 16:31N 27°56' W 082°26'0 0.0
2017-Sep-19 16:01N 27°56' W 082°26'0 0.0
2017-Sep-19 15:31N 27°56' W 082°26'0 0.0
2017-Sep-19 15:01N 27°56' W 082°26'0 0.0
2017-Sep-19 14:31N 27°56' W 082°26'0 0.0
2017-Sep-19 14:01N 27°56' W 082°26'0 0.0
2017-Sep-19 13:31N 27°56' W 082°26'0 0.0
2017-Sep-19 13:01N 27°56' W 082°26'0 0.0
2017-Sep-19 12:31N 27°56' W 082°26'0 0.0
2017-Sep-19 12:01N 27°56' W 082°26'0 0.0
2017-Sep-19 11:31N 27°56' W 082°26'0 0.0
2017-Sep-19 11:01N 27°56' W 082°26'0 0.0
2017-Sep-19 10:31N 27°56' W 082°26'0 0.0
2017-Sep-19 10:01N 27°56' W 082°26'0 0.0
2017-Sep-19 09:30N 27°56' W 082°26'0 0.0
2017-Sep-19 09:01N 27°56' W 082°26'0 0.0
2017-Sep-19 08:31N 27°56' W 082°26'0 0.0
2017-Sep-19 08:01N 27°56' W 082°26'0 0.0
2017-Sep-19 07:30N 27°56' W 082°26'0 0.0
2017-Sep-19 07:01N 27°56' W 082°26'0 0.0
2017-Sep-19 06:31N 27°56' W 082°26'0 0.0
2017-Sep-19 06:00N 27°56' W 082°26'0 0.0
2017-Sep-19 05:30N 27°56' W 082°26'0 0.0
2017-Sep-19 05:01N 27°56' W 082°26'0 0.0
2017-Sep-19 04:31N 27°56' W 082°26'2 4.0
2017-Sep-19 04:01N 27°54' W 082°25'0 0.1
2017-Sep-19 03:31N 27°54' W 082°25'1 1.7
2017-Sep-19 03:01N 27°54' W 082°26'3 6.5
2017-Sep-19 02:30N 27°51' W 082°27'611.1
2017-Sep-19 02:01N 27°47' W 082°31'6 2.7
2017-Sep-18 23:53N 27°42' W 082°33'513.1
2017-Sep-18 23:30N 27°46' W 082°31'5 9.5
2017-Sep-18 23:01N 27°51' W 082°34'1 2.5
2017-Sep-18 22:30N 27°52' W 082°33'0 0.0
2017-Sep-18 22:00N 27°52' W 082°33'0 0.0
2017-Sep-18 21:30N 27°52' W 082°33'0 0.0
2017-Sep-18 21:00N 27°52' W 082°33'0 0.0
2017-Sep-18 20:30N 27°52' W 082°33'0 0.0
2017-Sep-18 20:00N 27°52' W 082°33'0 0.1
2017-Sep-18 19:30N 27°52' W 082°33'0 0.0
2017-Sep-18 19:00N 27°52' W 082°33'0 0.3
2017-Sep-18 18:30N 27°52' W 082°33'2 3.3
2017-Sep-18 17:59N 27°50' W 082°34'3 6.6
2017-Sep-18 17:30N 27°47' W 082°33'510.3
2017-Sep-18 17:00N 27°42' W 082°33'4 0.9
2017-Sep-18 12:30N 27°38' W 082°34'5 8.7
2017-Sep-18 11:54N 27°37' W 082°40'  
2017-Sep-16 06:12N 27°42' W 082°33'210.0
2017-Sep-16 06:00N 27°43' W 082°32'4 8.7
2017-Sep-16 05:31N 27°47' W 082°30'4 8.8
2017-Sep-16 05:01N 27°51' W 082°27'4 8.2
2017-Sep-16 04:30N 27°55' W 082°26'1 2.8
2017-Sep-16 04:00N 27°56' W 082°26'0 0.0
2017-Sep-16 03:30N 27°56' W 082°26'0 0.0
2017-Sep-16 03:00N 27°56' W 082°26'0 0.0
2017-Sep-16 02:30N 27°56' W 082°26'0 0.0
2017-Sep-16 02:00N 27°56' W 082°26'0 0.0
2017-Sep-16 01:30N 27°56' W 082°26'0 0.0
2017-Sep-16 01:00N 27°56' W 082°26'0 0.0
2017-Sep-16 00:30N 27°56' W 082°26'0 0.0
2017-Sep-16 00:00N 27°56' W 082°26'0 0.0
2017-Sep-15 23:30N 27°56' W 082°26'0 0.0
2017-Sep-15 23:00N 27°56' W 082°26'0 0.0
2017-Sep-15 22:30N 27°56' W 082°26'0 0.0
2017-Sep-15 22:00N 27°56' W 082°26'0 0.0
2017-Sep-15 21:30N 27°56' W 082°26'0 0.0
2017-Sep-15 21:00N 27°56' W 082°26'0 0.0
2017-Sep-15 20:30N 27°56' W 082°26'0 0.0
2017-Sep-15 20:00N 27°56' W 082°26'0 0.0
2017-Sep-15 19:30N 27°56' W 082°26'0 0.0
2017-Sep-15 19:00N 27°56' W 082°26'0 0.0
2017-Sep-15 18:30N 27°56' W 082°26'0 0.0
2017-Sep-15 18:00N 27°56' W 082°26'0 0.0
2017-Sep-15 17:30N 27°56' W 082°26'0 0.0
2017-Sep-15 17:00N 27°56' W 082°26'0 0.0
2017-Sep-15 16:30N 27°56' W 082°26'1 3.0
2017-Sep-15 16:00N 27°55' W 082°26'0 0.2
2017-Sep-15 15:30N 27°54' W 082°26'1 3.0
2017-Sep-15 15:00N 27°53' W 082°27'1 1.0
2017-Sep-15 14:30N 27°53' W 082°26'3 5.1
2017-Sep-15 14:00N 27°56' W 082°26'0 0.0
2017-Sep-15 13:30N 27°56' W 082°26'0 0.0
2017-Sep-15 13:00N 27°56' W 082°26'0 0.0
2017-Sep-15 12:30N 27°56' W 082°26'0 0.0
2017-Sep-15 12:00N 27°56' W 082°26'0 0.0
2017-Sep-15 11:30N 27°56' W 082°26'0 0.0
2017-Sep-15 11:00N 27°56' W 082°26'0 0.0
2017-Sep-15 10:30N 27°56' W 082°26'0 0.0
2017-Sep-15 10:00N 27°56' W 082°26'0 0.0
2017-Sep-15 09:30N 27°56' W 082°26'0 0.0
2017-Sep-15 09:00N 27°56' W 082°26'0 0.0
2017-Sep-15 08:30N 27°56' W 082°26'0 0.0
2017-Sep-15 08:00N 27°56' W 082°26'0 0.0
2017-Sep-15 07:30N 27°56' W 082°26'0 0.0
2017-Sep-15 07:00N 27°56' W 082°26'0 0.0
2017-Sep-15 06:30N 27°56' W 082°26'0 0.0
2017-Sep-15 06:00N 27°56' W 082°26'0 0.0
2017-Sep-15 05:30N 27°56' W 082°26'0 0.0
2017-Sep-15 05:00N 27°56' W 082°26'0 0.0
2017-Sep-15 04:30N 27°56' W 082°26'0 0.0
2017-Sep-15 04:00N 27°56' W 082°26'0 0.0
2017-Sep-15 03:30N 27°56' W 082°26'0 0.0
2017-Sep-15 03:00N 27°56' W 082°26'0 0.0
2017-Sep-15 02:30N 27°56' W 082°26'1 2.5
2017-Sep-15 02:00N 27°55' W 082°26'1 2.8
2017-Sep-15 01:31N 27°56' W 082°27'1 1.0
2017-Sep-15 01:01N 27°56' W 082°27'0 1.0
2017-Sep-15 00:30N 27°56' W 082°27'2 4.2
2017-Sep-15 00:01N 27°54' W 082°26'0 1.0
2017-Sep-14 23:30N 27°54' W 082°26'2 3.7
2017-Sep-14 23:00N 27°56' W 082°26'0 0.0
2017-Sep-14 22:30N 27°56' W 082°26'0 0.0
2017-Sep-14 22:00N 27°56' W 082°26'0 0.0
2017-Sep-14 21:30N 27°56' W 082°26'0 0.0
2017-Sep-14 21:00N 27°56' W 082°26'0 0.0
2017-Sep-14 20:30N 27°56' W 082°26'0 0.0
2017-Sep-14 20:00N 27°56' W 082°26'0 0.0
2017-Sep-14 19:30N 27°56' W 082°26'0 0.0
2017-Sep-14 19:00N 27°56' W 082°26'0 0.0
2017-Sep-14 18:30N 27°56' W 082°26'0 0.0
2017-Sep-14 18:00N 27°56' W 082°26'2 3.1
2017-Sep-14 17:30N 27°54' W 082°26'1 1.8
2017-Sep-14 17:00N 27°55' W 082°27'1 1.4
2017-Sep-14 16:30N 27°54' W 082°26'0 0.0
2017-Sep-14 16:00N 27°54' W 082°26'5 9.6
2017-Sep-14 15:29N 27°49' W 082°27'4 9.3
2017-Sep-14 15:00N 27°47' W 082°31'5 9.7
2017-Sep-14 14:30N 27°42' W 082°33'4 0.2
2017-Sep-13 11:26N 27°38' W 082°34'0 0.0
2017-Sep-13 10:08N 27°38' W 082°34'0 0.0
2017-Sep-13 09:50N 27°38' W 082°34'0 0.0
2017-Sep-13 08:21N 27°38' W 082°34'0 0.0
2017-Sep-13 06:40N 27°38' W 082°34'0 0.0
2017-Sep-13 06:29N 27°38' W 082°34'0 0.0
2017-Sep-13 05:49N 27°38' W 082°34'4 0.3
2017-Sep-12 18:59N 27°42' W 082°33'5 9.8
2017-Sep-12 18:31N 27°46' W 082°31'5 9.2
2017-Sep-12 18:01N 27°49' W 082°27'510.1
2017-Sep-12 17:30N 27°54' W 082°26'2 0.6
2017-Sep-12 13:26N 27°56' W 082°26'0 0.0
2017-Sep-12 13:00N 27°56' W 082°26'0 0.0
2017-Sep-12 12:30N 27°56' W 082°26'0 0.0
2017-Sep-12 12:00N 27°56' W 082°26'  
Track history (hours):
 
Tides and Currents Weather Stations Pressure Air Temp Water Temp Dewpoint Dewpoint Depression Visibility Wind Speed Wind Dir Waves Ship Positions

Independent

Last reported at 2017-Sep-21 12:01 UTC. Time now 2017-Sep-21 12:31 UTC.
Position N 27°56' W 082°26'.

Length 28 m; draft 5 m.

Type: Tug. MMSI: 367777460.

Date/timePositionNaut miles runAvg speedWind from/ knotsBaromVisibWave heightAir tempDewpointWater temp
2017-Sep-21 12:01N 27°56' W 082°26'0 0.0
2017-Sep-21 11:31N 27°56' W 082°26'0 0.0
2017-Sep-21 11:01N 27°56' W 082°26'0 0.0
2017-Sep-21 10:31N 27°56' W 082°26'0 0.0
2017-Sep-21 10:01N 27°56' W 082°26'0 0.0
2017-Sep-21 09:31N 27°56' W 082°26'0 0.0
2017-Sep-21 09:01N 27°56' W 082°26'0 0.0
2017-Sep-21 08:31N 27°56' W 082°26'0 0.0
2017-Sep-21 08:01N 27°56' W 082°26'0 0.0
2017-Sep-21 07:31N 27°56' W 082°26'0 0.0
2017-Sep-21 07:00N 27°56' W 082°26'0 0.0
2017-Sep-21 06:30N 27°56' W 082°26'0 0.0
2017-Sep-21 06:01N 27°56' W 082°26'0 0.0
2017-Sep-21 05:31N 27°56' W 082°26'0 0.0
2017-Sep-21 05:01N 27°56' W 082°26'0 0.0
2017-Sep-21 04:31N 27°56' W 082°26'0 0.0
2017-Sep-21 04:00N 27°56' W 082°26'0 0.0
2017-Sep-21 03:31N 27°56' W 082°26'0 0.0
2017-Sep-21 03:01N 27°56' W 082°26'0 0.0
2017-Sep-21 02:31N 27°56' W 082°26'0 0.0
2017-Sep-21 02:01N 27°56' W 082°26'0 0.0
2017-Sep-21 01:31N 27°56' W 082°26'0 0.0
2017-Sep-21 01:01N 27°56' W 082°26'0 0.0
2017-Sep-21 00:31N 27°56' W 082°26'0 0.0
2017-Sep-21 00:01N 27°56' W 082°26'0 0.0
2017-Sep-20 23:30N 27°56' W 082°26'0 0.0
2017-Sep-20 23:00N 27°56' W 082°26'4 7.3
2017-Sep-20 22:31N 27°52' W 082°27'5 9.2
2017-Sep-20 22:00N 27°48' W 082°28'5 9.7
2017-Sep-20 21:30N 27°47' W 082°34'4 9.0
2017-Sep-20 21:01N 27°52' W 082°33'0 0.0
2017-Sep-20 20:31N 27°52' W 082°33'0 0.0
2017-Sep-20 20:01N 27°52' W 082°33'2 3.8
2017-Sep-20 19:30N 27°50' W 082°34'4 8.4
2017-Sep-20 19:00N 27°47' W 082°30'510.4
2017-Sep-20 18:30N 27°51' W 082°27'5 9.2
2017-Sep-20 18:00N 27°56' W 082°26'0 0.1
2017-Sep-20 17:31N 27°56' W 082°26'0 0.0
2017-Sep-20 17:01N 27°56' W 082°26'0 0.0
2017-Sep-20 16:31N 27°56' W 082°26'0 0.0
2017-Sep-20 16:01N 27°56' W 082°26'0 0.0
2017-Sep-20 15:31N 27°56' W 082°26'0 0.0
2017-Sep-20 15:01N 27°56' W 082°26'0 0.0
2017-Sep-20 14:01N 27°56' W 082°26'0 0.0
2017-Sep-20 13:31N 27°56' W 082°26'0 0.0
2017-Sep-20 13:00N 27°56' W 082°26'0 0.0
2017-Sep-20 12:30N 27°56' W 082°26'0 0.0
2017-Sep-20 12:01N 27°56' W 082°26'0 0.0
2017-Sep-20 11:30N 27°56' W 082°26'0 0.0
2017-Sep-20 11:01N 27°56' W 082°26'0 0.0
2017-Sep-20 10:31N 27°56' W 082°26'0 0.0
2017-Sep-20 10:01N 27°56' W 082°26'0 0.0
2017-Sep-20 09:30N 27°56' W 082°26'0 0.0
2017-Sep-20 09:01N 27°56' W 082°26'0 0.0
2017-Sep-20 08:31N 27°56' W 082°26'0 0.0
2017-Sep-20 08:01N 27°56' W 082°26'0 0.0
2017-Sep-20 07:31N 27°56' W 082°26'0 0.0
2017-Sep-20 07:01N 27°56' W 082°26'0 0.0
2017-Sep-20 06:31N 27°56' W 082°26'0 0.0
2017-Sep-20 06:00N 27°56' W 082°26'1 2.9
2017-Sep-20 05:30N 27°55' W 082°26'0 0.0
2017-Sep-20 05:01N 27°55' W 082°26'0 0.4
2017-Sep-20 04:30N 27°55' W 082°26'1 1.7
2017-Sep-20 04:01N 27°54' W 082°26'5 9.5
2017-Sep-20 03:30N 27°49' W 082°27'2 4.1
2017-Sep-20 02:59N 27°48' W 082°25'0 0.0
2017-Sep-20 02:29N 27°48' W 082°25'3 6.2
2017-Sep-20 02:01N 27°51' W 082°27'3 7.0
2017-Sep-20 01:30N 27°54' W 082°26'0 0.7
2017-Sep-20 01:01N 27°55' W 082°26'0 0.0
2017-Sep-20 00:31N 27°55' W 082°26'1 1.4
2017-Sep-20 00:00N 27°55' W 082°26'1 2.6
2017-Sep-19 23:31N 27°56' W 082°26'0 0.0
2017-Sep-19 23:01N 27°56' W 082°26'0 0.0
2017-Sep-19 22:30N 27°56' W 082°26'0 0.0
2017-Sep-19 22:01N 27°56' W 082°26'0 0.0
2017-Sep-19 21:31N 27°56' W 082°26'0 0.0
2017-Sep-19 21:01N 27°56' W 082°26'0 0.0
2017-Sep-19 20:31N 27°56' W 082°26'0 0.0
2017-Sep-19 20:00N 27°56' W 082°26'0 0.0
2017-Sep-19 19:30N 27°56' W 082°26'0 0.0
2017-Sep-19 19:01N 27°56' W 082°26'0 0.0
2017-Sep-19 18:31N 27°56' W 082°26'0 0.0
2017-Sep-19 18:01N 27°56' W 082°26'0 0.0
2017-Sep-19 17:31N 27°56' W 082°26'0 0.0
2017-Sep-19 17:00N 27°56' W 082°26'0 0.0
2017-Sep-19 16:31N 27°56' W 082°26'0 0.0
2017-Sep-19 16:01N 27°56' W 082°26'0 0.0
2017-Sep-19 15:31N 27°56' W 082°26'0 0.0
2017-Sep-19 15:01N 27°56' W 082°26'0 0.0
2017-Sep-19 14:31N 27°56' W 082°26'0 0.0
2017-Sep-19 14:01N 27°56' W 082°26'0 0.0
2017-Sep-19 13:31N 27°56' W 082°26'0 0.0
2017-Sep-19 13:01N 27°56' W 082°26'0 0.0
2017-Sep-19 12:31N 27°56' W 082°26'0 0.0
2017-Sep-19 12:01N 27°56' W 082°26'0 0.0
2017-Sep-19 11:31N 27°56' W 082°26'0 0.0
2017-Sep-19 11:01N 27°56' W 082°26'0 0.0
2017-Sep-19 10:31N 27°56' W 082°26'0 0.0
2017-Sep-19 10:01N 27°56' W 082°26'0 0.0
2017-Sep-19 09:30N 27°56' W 082°26'0 0.0
2017-Sep-19 09:01N 27°56' W 082°26'0 0.0
2017-Sep-19 08:31N 27°56' W 082°26'0 0.0
2017-Sep-19 08:01N 27°56' W 082°26'0 0.0
2017-Sep-19 07:30N 27°56' W 082°26'0 0.0
2017-Sep-19 07:01N 27°56' W 082°26'0 0.0
2017-Sep-19 06:31N 27°56' W 082°26'0 0.0
2017-Sep-19 06:00N 27°56' W 082°26'0 0.0
2017-Sep-19 05:30N 27°56' W 082°26'0 0.0
2017-Sep-19 05:01N 27°56' W 082°26'0 0.0
2017-Sep-19 04:31N 27°56' W 082°26'2 4.0
2017-Sep-19 04:01N 27°54' W 082°25'0 0.1
2017-Sep-19 03:31N 27°54' W 082°25'1 1.7
2017-Sep-19 03:01N 27°54' W 082°26'3 6.5
2017-Sep-19 02:30N 27°51' W 082°27'611.1
2017-Sep-19 02:01N 27°47' W 082°31'6 2.7
2017-Sep-18 23:53N 27°42' W 082°33'513.1
2017-Sep-18 23:30N 27°46' W 082°31'5 9.5
2017-Sep-18 23:01N 27°51' W 082°34'1 2.5
2017-Sep-18 22:30N 27°52' W 082°33'0 0.0
2017-Sep-18 22:00N 27°52' W 082°33'0 0.0
2017-Sep-18 21:30N 27°52' W 082°33'0 0.0
2017-Sep-18 21:00N 27°52' W 082°33'0 0.0
2017-Sep-18 20:30N 27°52' W 082°33'0 0.0
2017-Sep-18 20:00N 27°52' W 082°33'0 0.1
2017-Sep-18 19:30N 27°52' W 082°33'0 0.0
2017-Sep-18 19:00N 27°52' W 082°33'0 0.3
2017-Sep-18 18:30N 27°52' W 082°33'2 3.3
2017-Sep-18 17:59N 27°50' W 082°34'3 6.6
2017-Sep-18 17:30N 27°47' W 082°33'510.3
2017-Sep-18 17:00N 27°42' W 082°33'4 0.9
2017-Sep-18 12:30N 27°38' W 082°34'5 8.7
2017-Sep-18 11:54N 27°37' W 082°40'  
2017-Sep-16 06:12N 27°42' W 082°33'210.0
2017-Sep-16 06:00N 27°43' W 082°32'4 8.7
2017-Sep-16 05:31N 27°47' W 082°30'4 8.8
2017-Sep-16 05:01N 27°51' W 082°27'4 8.2
2017-Sep-16 04:30N 27°55' W 082°26'1 2.8
2017-Sep-16 04:00N 27°56' W 082°26'0 0.0
2017-Sep-16 03:30N 27°56' W 082°26'0 0.0
2017-Sep-16 03:00N 27°56' W 082°26'0 0.0
2017-Sep-16 02:30N 27°56' W 082°26'0 0.0
2017-Sep-16 02:00N 27°56' W 082°26'0 0.0
2017-Sep-16 01:30N 27°56' W 082°26'0 0.0
2017-Sep-16 01:00N 27°56' W 082°26'0 0.0
2017-Sep-16 00:30N 27°56' W 082°26'0 0.0
2017-Sep-16 00:00N 27°56' W 082°26'0 0.0
2017-Sep-15 23:30N 27°56' W 082°26'0 0.0
2017-Sep-15 23:00N 27°56' W 082°26'0 0.0
2017-Sep-15 22:30N 27°56' W 082°26'0 0.0
2017-Sep-15 22:00N 27°56' W 082°26'0 0.0
2017-Sep-15 21:30N 27°56' W 082°26'0 0.0
2017-Sep-15 21:00N 27°56' W 082°26'0 0.0
2017-Sep-15 20:30N 27°56' W 082°26'0 0.0
2017-Sep-15 20:00N 27°56' W 082°26'0 0.0
2017-Sep-15 19:30N 27°56' W 082°26'0 0.0
2017-Sep-15 19:00N 27°56' W 082°26'0 0.0
2017-Sep-15 18:30N 27°56' W 082°26'0 0.0
2017-Sep-15 18:00N 27°56' W 082°26'0 0.0
2017-Sep-15 17:30N 27°56' W 082°26'0 0.0
2017-Sep-15 17:00N 27°56' W 082°26'0 0.0
2017-Sep-15 16:30N 27°56' W 082°26'1 3.0
2017-Sep-15 16:00N 27°55' W 082°26'0 0.2
2017-Sep-15 15:30N 27°54' W 082°26'1 3.0
2017-Sep-15 15:00N 27°53' W 082°27'1 1.0
2017-Sep-15 14:30N 27°53' W 082°26'3 5.1
2017-Sep-15 14:00N 27°56' W 082°26'0 0.0
2017-Sep-15 13:30N 27°56' W 082°26'0 0.0
2017-Sep-15 13:00N 27°56' W 082°26'0 0.0
2017-Sep-15 12:30N 27°56' W 082°26'0 0.0
2017-Sep-15 12:00N 27°56' W 082°26'0 0.0
2017-Sep-15 11:30N 27°56' W 082°26'0 0.0
2017-Sep-15 11:00N 27°56' W 082°26'0 0.0
2017-Sep-15 10:30N 27°56' W 082°26'0 0.0
2017-Sep-15 10:00N 27°56' W 082°26'0 0.0
2017-Sep-15 09:30N 27°56' W 082°26'0 0.0
2017-Sep-15 09:00N 27°56' W 082°26'0 0.0
2017-Sep-15 08:30N 27°56' W 082°26'0 0.0
2017-Sep-15 08:00N 27°56' W 082°26'0 0.0
2017-Sep-15 07:30N 27°56' W 082°26'0 0.0
2017-Sep-15 07:00N 27°56' W 082°26'0 0.0
2017-Sep-15 06:30N 27°56' W 082°26'0 0.0
2017-Sep-15 06:00N 27°56' W 082°26'0 0.0
2017-Sep-15 05:30N 27°56' W 082°26'0 0.0
2017-Sep-15 05:00N 27°56' W 082°26'0 0.0
2017-Sep-15 04:30N 27°56' W 082°26'0 0.0
2017-Sep-15 04:00N 27°56' W 082°26'0 0.0
2017-Sep-15 03:30N 27°56' W 082°26'0 0.0
2017-Sep-15 03:00N 27°56' W 082°26'0 0.0
2017-Sep-15 02:30N 27°56' W 082°26'1 2.5
2017-Sep-15 02:00N 27°55' W 082°26'1 2.8
2017-Sep-15 01:31N 27°56' W 082°27'1 1.0
2017-Sep-15 01:01N 27°56' W 082°27'0 1.0
2017-Sep-15 00:30N 27°56' W 082°27'2 4.2
2017-Sep-15 00:01N 27°54' W 082°26'0 1.0
2017-Sep-14 23:30N 27°54' W 082°26'2 3.7
2017-Sep-14 23:00N 27°56' W 082°26'0 0.0
2017-Sep-14 22:30N 27°56' W 082°26'0 0.0
2017-Sep-14 22:00N 27°56' W 082°26'0 0.0
2017-Sep-14 21:30N 27°56' W 082°26'0 0.0
2017-Sep-14 21:00N 27°56' W 082°26'0 0.0
2017-Sep-14 20:30N 27°56' W 082°26'0 0.0
2017-Sep-14 20:00N 27°56' W 082°26'0 0.0
2017-Sep-14 19:30N 27°56' W 082°26'0 0.0
2017-Sep-14 19:00N 27°56' W 082°26'0 0.0
2017-Sep-14 18:30N 27°56' W 082°26'0 0.0
2017-Sep-14 18:00N 27°56' W 082°26'2 3.1
2017-Sep-14 17:30N 27°54' W 082°26'1 1.8
2017-Sep-14 17:00N 27°55' W 082°27'1 1.4
2017-Sep-14 16:30N 27°54' W 082°26'0 0.0
2017-Sep-14 16:00N 27°54' W 082°26'5 9.6
2017-Sep-14 15:29N 27°49' W 082°27'4 9.3
2017-Sep-14 15:00N 27°47' W 082°31'5 9.7
2017-Sep-14 14:30N 27°42' W 082°33'4 0.2
2017-Sep-13 11:26N 27°38' W 082°34'0 0.0
2017-Sep-13 10:08N 27°38' W 082°34'0 0.0
2017-Sep-13 09:50N 27°38' W 082°34'0 0.0
2017-Sep-13 08:21N 27°38' W 082°34'0 0.0
2017-Sep-13 06:40N 27°38' W 082°34'0 0.0
2017-Sep-13 06:29N 27°38' W 082°34'0 0.0
2017-Sep-13 05:49N 27°38' W 082°34'4 0.3
2017-Sep-12 18:59N 27°42' W 082°33'5 9.8
2017-Sep-12 18:31N 27°46' W 082°31'5 9.2
2017-Sep-12 18:01N 27°49' W 082°27'510.1
2017-Sep-12 17:30N 27°54' W 082°26'2 0.6
2017-Sep-12 13:26N 27°56' W 082°26'0 0.0
2017-Sep-12 13:00N 27°56' W 082°26'0 0.0
2017-Sep-12 12:30N 27°56' W 082°26'0 0.0
2017-Sep-12 12:00N 27°56' W 082°26'  

Dump ship's entire track history